Time;durP1;ratioP1;P1;durP2;ratioP2;P2;SDS_P1;SDS_P2;PMS_P1;PMS_P2;Temp;Humidity;BMP_temperature;BMP_pressure;BME280_temperature;BME280_humidity;BME280_pressure;Samples;Min_cycle;Max_cycle;Signal;HPM_P1;HPM_P2
2023/09/13 00:00:28;;;;;;;0.00;0.00;;;18.90;99.90;;;;;;4969515;28;20042;-77
2023/09/13 00:02:53;;;;;;;0.00;0.00;;;19.00;99.90;;;;;;4964534;28;20040;-77
2023/09/13 00:05:19;;;;;;;0.00;0.00;;;19.00;99.90;;;;;;4968791;28;20065;-76
2023/09/13 00:07:45;;;;;;;0.00;0.00;;;19.10;99.90;;;;;;4966098;28;20039;-76
2023/09/13 00:10:10;;;;;;;0.00;0.00;;;19.10;99.90;;;;;;4963857;28;20121;-76
2023/09/13 00:12:36;;;;;;;0.00;0.00;;;19.00;99.90;;;;;;4950729;28;20035;-77
2023/09/13 00:15:02;;;;;;;0.00;0.00;;;19.00;99.90;;;;;;4957467;28;20643;-76
2023/09/13 00:17:28;;;;;;;0.00;0.00;;;18.90;99.90;;;;;;4968854;28;20026;-78
2023/09/13 00:19:56;;;;;;;0.00;0.00;;;18.90;99.90;;;;;;4969371;28;20050;-77
2023/09/13 00:22:23;;;;;;;0.00;0.00;;;19.00;99.90;;;;;;4969662;28;20037;-77
2023/09/13 00:24:48;;;;;;;0.00;0.00;;;18.90;99.90;;;;;;4964861;28;20031;-77
2023/09/13 00:27:14;;;;;;;0.00;0.00;;;18.80;99.90;;;;;;4952357;28;20568;-76
2023/09/13 00:29:40;;;;;;;0.00;0.00;;;18.80;99.90;;;;;;4964575;28;20042;-76
2023/09/13 00:32:05;;;;;;;0.00;0.00;;;19.00;99.90;;;;;;4962545;28;20022;-77
2023/09/13 00:34:31;;;;;;;0.00;0.00;;;18.90;99.90;;;;;;4954846;28;20081;-76
2023/09/13 00:36:57;;;;;;;0.00;0.00;;;19.00;99.90;;;;;;4957451;28;20101;-76
2023/09/13 00:39:23;;;;;;;0.10;0.10;;;19.00;99.90;;;;;;4967934;28;20025;-76
2023/09/13 00:41:49;;;;;;;0.00;0.00;;;19.00;99.90;;;;;;4968074;28;20038;-76
2023/09/13 00:44:14;;;;;;;0.00;0.00;;;19.00;99.90;;;;;;4965807;28;20114;-76
2023/09/13 00:46:41;;;;;;;0.00;0.00;;;19.00;99.90;;;;;;4968755;28;20042;-77
2023/09/13 00:49:08;;;;;;;0.00;0.00;;;19.00;99.90;;;;;;4968257;28;20023;-76
2023/09/13 00:51:34;;;;;;;0.10;0.10;;;18.90;99.90;;;;;;4969164;28;20884;-77
2023/09/13 00:54:04;;;;;;;0.00;0.00;;;18.90;99.90;;;;;;4963082;28;20035;-77
2023/09/13 00:56:31;;;;;;;0.00;0.00;;;18.80;99.90;;;;;;4968734;28;20019;-76
2023/09/13 00:58:57;;;;;;;0.00;0.00;;;18.90;99.90;;;;;;4963459;28;20857;-76
2023/09/13 01:01:23;;;;;;;0.00;0.00;;;18.90;99.90;;;;;;4963596;28;20049;-76
2023/09/13 01:03:49;;;;;;;0.00;0.00;;;18.90;99.90;;;;;;4964933;28;20030;-77
2023/09/13 01:06:15;;;;;;;0.03;0.03;;;18.70;99.90;;;;;;4967735;28;20054;-76
2023/09/13 01:08:41;;;;;;;0.00;0.00;;;18.80;99.90;;;;;;4973988;28;20090;-76
2023/09/13 01:11:08;;;;;;;0.00;0.00;;;18.80;99.90;;;;;;4959689;28;20050;-76
2023/09/13 01:13:34;;;;;;;;;;;18.70;99.90;;;;;;4959094;28;20039;-76
2023/09/13 01:16:18;;;;;;;0.00;0.00;;;18.70;99.90;;;;;;4962086;28;19925;-76
2023/09/13 01:19:04;;;;;;;0.10;0.10;;;18.70;99.90;;;;;;4982591;28;20026;-76
2023/09/13 01:21:34;;;;;;;;;;;18.70;99.90;;;;;;4958497;28;20689;-76
2023/09/13 01:24:23;;;;;;;0.00;0.00;;;18.70;99.90;;;;;;4959204;28;19921;-76
2023/09/13 01:26:51;;;;;;;0.00;0.00;;;18.70;99.90;;;;;;4952988;28;20027;-76
2023/09/13 01:29:19;;;;;;;0.20;0.20;;;18.60;99.90;;;;;;4963914;28;20833;-76
2023/09/13 01:31:46;;;;;;;0.00;0.00;;;18.60;99.90;;;;;;4968643;28;20027;-76
2023/09/13 01:34:12;;;;;;;0.00;0.00;;;18.70;99.90;;;;;;4960554;28;20050;-77
2023/09/13 01:36:37;;;;;;;0.00;0.00;;;18.80;99.90;;;;;;4959006;28;20067;-77
2023/09/13 01:39:04;;;;;;;0.00;0.00;;;18.90;99.90;;;;;;4958106;28;20062;-77
2023/09/13 01:41:48;;;;;;;0.00;0.00;;;18.80;99.90;;;;;;4959698;28;20853;-77
2023/09/13 01:44:15;;;;;;;0.00;0.00;;;18.80;99.90;;;;;;4974822;28;20031;-77
2023/09/13 01:46:45;;;;;;;0.00;0.00;;;18.80;99.90;;;;;;4961760;28;20046;-76
2023/09/13 01:49:13;;;;;;;0.00;0.00;;;18.90;99.90;;;;;;4965777;28;20118;-76
2023/09/13 01:51:39;;;;;;;0.00;0.00;;;19.00;99.90;;;;;;4956388;28;20792;-77
2023/09/13 01:54:05;;;;;;;0.00;0.00;;;18.90;99.90;;;;;;4960905;28;20031;-77
2023/09/13 01:56:31;;;;;;;0.00;0.00;;;18.90;99.90;;;;;;4956624;28;20037;-76
2023/09/13 01:58:57;;;;;;;0.00;0.00;;;19.00;99.90;;;;;;4961552;28;20105;-77
2023/09/13 02:01:23;;;;;;;0.00;0.00;;;18.80;99.90;;;;;;4952634;28;20126;-77
2023/09/13 02:03:48;;;;;;;0.00;0.00;;;18.80;99.90;;;;;;4965586;28;20117;-76
2023/09/13 02:06:14;;;;;;;0.00;0.00;;;18.80;99.90;;;;;;4962576;28;20038;-77
2023/09/13 02:08:41;;;;;;;0.00;0.00;;;18.80;99.90;;;;;;4969189;28;20146;-77
2023/09/13 02:11:07;;;;;;;0.52;0.52;;;18.70;99.90;;;;;;4966954;28;20039;-77
2023/09/13 02:13:33;;;;;;;0.00;0.00;;;18.60;99.90;;;;;;4955524;28;20035;-76
2023/09/13 02:15:59;;;;;;;0.00;0.00;;;18.50;99.90;;;;;;4962307;28;20042;-76
2023/09/13 02:18:25;;;;;;;0.00;0.00;;;18.60;99.90;;;;;;4956568;28;20077;-76
2023/09/13 02:20:51;;;;;;;0.07;0.07;;;18.60;99.90;;;;;;4968327;28;20059;-76
2023/09/13 02:23:16;;;;;;;0.00;0.00;;;18.60;99.90;;;;;;4958796;28;20129;-76
2023/09/13 02:25:45;;;;;;;0.00;0.00;;;18.60;99.90;;;;;;4965373;28;20062;-76
2023/09/13 02:28:12;;;;;;;0.20;0.20;;;18.70;99.90;;;;;;4957791;28;20632;-76
2023/09/13 02:30:37;;;;;;;0.00;0.00;;;18.50;99.90;;;;;;4962749;28;20051;-76
2023/09/13 02:33:04;;;;;;;0.00;0.00;;;18.70;99.90;;;;;;4972015;28;20498;-76
2023/09/13 02:35:30;;;;;;;0.00;0.00;;;18.70;99.90;;;;;;4955445;28;20046;-76
2023/09/13 02:37:57;;;;;;;0.00;0.00;;;18.60;99.90;;;;;;4966642;28;20086;-77
2023/09/13 02:40:23;;;;;;;0.00;0.00;;;18.60;99.90;;;;;;4983953;28;20039;-76
2023/09/13 02:42:49;;;;;;;0.00;0.00;;;18.60;99.90;;;;;;4970709;28;20078;-77
2023/09/13 02:45:15;;;;;;;0.00;0.00;;;18.60;99.90;;;;;;4964199;28;20070;-76
2023/09/13 02:47:41;;;;;;;0.00;0.00;;;18.80;99.90;;;;;;4967372;28;20073;-77
2023/09/13 02:50:06;;;;;;;0.00;0.00;;;18.80;99.90;;;;;;4967206;28;20055;-77
2023/09/13 02:52:33;;;;;;;0.00;0.00;;;18.80;99.90;;;;;;4963702;28;20082;-77
2023/09/13 02:55:00;;;;;;;0.00;0.00;;;18.80;99.90;;;;;;4962625;28;20023;-77
2023/09/13 02:57:26;;;;;;;0.00;0.00;;;18.70;99.90;;;;;;4965498;28;20038;-76
2023/09/13 02:59:53;;;;;;;0.00;0.00;;;18.70;99.90;;;;;;4966435;28;20031;-75
2023/09/13 03:02:19;;;;;;;0.10;0.10;;;18.80;99.90;;;;;;4970290;28;20505;-76
2023/09/13 03:04:50;;;;;;;0.00;0.00;;;18.70;99.90;;;;;;4967087;28;20097;-76
2023/09/13 03:07:15;;;;;;;0.00;0.00;;;18.60;99.90;;;;;;4975322;28;20026;-75
2023/09/13 03:09:42;;;;;;;0.07;0.07;;;18.80;99.90;;;;;;4952124;28;20041;-75
2023/09/13 03:12:08;;;;;;;;;;;18.80;99.90;;;;;;4953743;28;20031;-76
2023/09/13 03:14:33;;;;;;;0.00;0.00;;;18.80;99.90;;;;;;4966625;28;20521;-76
2023/09/13 03:16:59;;;;;;;0.00;0.00;;;18.80;99.90;;;;;;4969843;28;20034;-76
2023/09/13 03:19:25;;;;;;;0.10;0.10;;;18.70;99.90;;;;;;4958502;28;20693;-75
2023/09/13 03:21:50;;;;;;;3.63;1.80;;;18.70;99.90;;;;;;4954588;28;20039;-76
2023/09/13 03:24:16;;;;;;;0.00;0.00;;;18.60;99.90;;;;;;4955960;28;20015;-75
2023/09/13 03:26:42;;;;;;;0.00;0.00;;;18.70;99.90;;;;;;4966740;28;20038;-76
2023/09/13 03:29:07;;;;;;;0.00;0.00;;;18.60;99.90;;;;;;4959695;28;20034;-75
2023/09/13 03:31:36;;;;;;;0.00;0.00;;;18.70;99.90;;;;;;4973881;28;20078;-79
2023/09/13 03:34:08;;;;;;;0.00;0.00;;;18.80;99.90;;;;;;4983906;28;20038;-78
2023/09/13 03:36:34;;;;;;;0.00;0.00;;;18.80;99.90;;;;;;4967713;28;20031;-78
2023/09/13 03:39:00;;;;;;;0.00;0.00;;;18.60;99.90;;;;;;4968217;28;20121;-78
2023/09/13 03:41:26;;;;;;;0.20;0.20;;;18.60;99.90;;;;;;4983798;28;20045;-77
2023/09/13 03:43:52;;;;;;;0.00;0.00;;;18.50;99.90;;;;;;4969080;28;20034;-78
2023/09/13 03:46:18;;;;;;;0.00;0.00;;;18.40;99.90;;;;;;4961941;28;20042;-78
2023/09/13 03:48:44;;;;;;;0.00;0.00;;;18.40;99.90;;;;;;4984921;28;20524;-78
2023/09/13 03:51:09;;;;;;;0.00;0.00;;;18.30;99.90;;;;;;4969490;28;20042;-78
2023/09/13 03:53:36;;;;;;;0.00;0.00;;;18.40;99.90;;;;;;4970144;28;20061;-78
2023/09/13 03:56:03;;;;;;;0.00;0.00;;;18.40;99.90;;;;;;4965158;28;20041;-77
2023/09/13 03:58:28;;;;;;;0.00;0.00;;;18.40;99.90;;;;;;4970678;28;20753;-77
2023/09/13 04:00:55;;;;;;;0.00;0.00;;;18.40;99.90;;;;;;4967024;28;20116;-78
2023/09/13 04:03:21;;;;;;;0.00;0.00;;;18.50;99.90;;;;;;4967917;28;20030;-77
2023/09/13 04:05:47;;;;;;;0.00;0.00;;;18.40;99.90;;;;;;4969750;28;20034;-78
2023/09/13 04:08:13;;;;;;;0.00;0.00;;;18.40;99.90;;;;;;4975664;28;20517;-77
2023/09/13 04:10:39;;;;;;;0.00;0.00;;;18.40;99.90;;;;;;4960297;28;20058;-77
2023/09/13 04:13:05;;;;;;;0.00;0.00;;;18.30;99.90;;;;;;4965210;28;20073;-77
2023/09/13 04:15:31;;;;;;;0.10;0.10;;;18.20;99.90;;;;;;4956526;28;20019;-77
2023/09/13 04:17:57;;;;;;;0.00;0.00;;;18.20;99.90;;;;;;4960645;28;20031;-77
2023/09/13 04:20:23;;;;;;;0.00;0.00;;;18.20;99.90;;;;;;4961761;28;20102;-77
2023/09/13 04:22:48;;;;;;;2.20;1.20;;;18.40;99.90;;;;;;4953926;28;20031;-78
2023/09/13 04:25:14;;;;;;;0.00;0.00;;;18.50;99.90;;;;;;4966875;28;20121;-77
2023/09/13 04:27:47;;;;;;;0.00;0.00;;;18.40;99.90;;;;;;4967570;28;20031;-77
2023/09/13 04:30:15;;;;;;;1.75;0.90;;;18.50;99.90;;;;;;4953723;28;20066;-77
2023/09/13 04:32:41;;;;;;;0.00;0.00;;;18.50;99.90;;;;;;4966558;28;20031;-77
2023/09/13 04:35:07;;;;;;;0.00;0.00;;;18.70;99.90;;;;;;4963327;28;20034;-78
2023/09/13 04:37:33;;;;;;;0.00;0.00;;;18.70;99.90;;;;;;4969111;28;20771;-78
2023/09/13 04:40:00;;;;;;;0.00;0.00;;;18.60;99.90;;;;;;4978108;28;20030;-79
2023/09/13 04:42:26;;;;;;;0.20;0.20;;;18.40;99.90;;;;;;4967035;28;20057;-76
2023/09/13 04:44:51;;;;;;;0.00;0.00;;;18.50;99.90;;;;;;4955029;28;20106;-76
2023/09/13 04:47:18;;;;;;;0.00;0.00;;;18.40;99.90;;;;;;4965744;28;20031;-75
2023/09/13 04:49:43;;;;;;;0.00;0.00;;;18.50;99.90;;;;;;4955858;28;20144;-76
2023/09/13 04:52:10;;;;;;;0.00;0.00;;;18.50;99.90;;;;;;4966451;28;20062;-75
2023/09/13 04:54:36;;;;;;;0.22;0.22;;;18.40;99.90;;;;;;4978678;28;20675;-76
2023/09/13 04:57:03;;;;;;;0.00;0.00;;;18.40;99.90;;;;;;4963408;28;20784;-75
2023/09/13 04:59:45;;;;;;;0.00;0.00;;;18.40;99.90;;;;;;4963114;28;20039;-76
2023/09/13 05:02:11;;;;;;;0.00;0.00;;;18.40;99.90;;;;;;4961336;28;20070;-76
2023/09/13 05:04:37;;;;;;;;;;;18.40;99.90;;;;;;4966112;28;20034;-75
2023/09/13 05:07:04;;;;;;;0.00;0.00;;;18.30;99.90;;;;;;4960336;28;19914;-76
2023/09/13 05:09:29;;;;;;;0.00;0.00;;;18.30;99.90;;;;;;4967041;28;20030;-75
2023/09/13 05:11:56;;;;;;;0.00;0.00;;;18.40;99.90;;;;;;4960889;28;20067;-76
2023/09/13 05:14:22;;;;;;;0.20;0.20;;;18.40;99.90;;;;;;4963034;28;20100;-75
2023/09/13 05:16:47;;;;;;;0.00;0.00;;;18.30;99.90;;;;;;4963664;28;20898;-75
2023/09/13 05:19:13;;;;;;;0.00;0.00;;;18.30;99.90;;;;;;4969143;28;20027;-75
2023/09/13 05:21:39;;;;;;;0.77;0.77;;;18.40;99.90;;;;;;4966223;28;20054;-76
2023/09/13 05:24:05;;;;;;;0.10;0.10;;;18.40;99.90;;;;;;4984505;28;20034;-75
2023/09/13 05:26:30;;;;;;;0.00;0.00;;;18.40;99.90;;;;;;4961878;28;20134;-75
2023/09/13 05:28:56;;;;;;;0.00;0.00;;;18.30;99.90;;;;;;4968645;28;20053;-75
2023/09/13 05:31:22;;;;;;;0.00;0.00;;;18.30;99.90;;;;;;4964176;28;20067;-79
2023/09/13 05:33:48;;;;;;;0.00;0.00;;;18.30;99.90;;;;;;4961819;28;20837;-84
2023/09/13 05:36:14;;;;;;;0.00;0.00;;;18.50;99.90;;;;;;4957945;28;20265;-84
2023/09/13 05:38:41;;;;;;;0.00;0.00;;;18.50;99.90;;;;;;4975473;28;20039;-84
2023/09/13 05:41:10;;;;;;;0.00;0.00;;;18.50;99.90;;;;;;4960552;28;20084;-84
2023/09/13 05:43:41;;;;;;;0.00;0.00;;;18.50;99.90;;;;;;4983440;28;20104;-83
2023/09/13 05:46:07;;;;;;;0.47;0.43;;;18.90;99.90;;;;;;4962394;28;20031;-83
2023/09/13 05:48:34;;;;;;;0.03;0.03;;;19.00;99.90;;;;;;4961040;28;20078;-84
2023/09/13 05:51:00;;;;;;;0.00;0.00;;;18.70;99.90;;;;;;4966952;28;20616;-80
2023/09/13 05:53:25;;;;;;;0.00;0.00;;;18.70;99.90;;;;;;4982421;28;20030;-83
2023/09/13 05:55:51;;;;;;;0.87;0.83;;;18.50;99.90;;;;;;4964216;28;20502;-82
2023/09/13 05:58:18;;;;;;;0.00;0.00;;;18.60;99.90;;;;;;4979621;28;20027;-82
2023/09/13 06:00:47;;;;;;;0.00;0.00;;;18.70;99.90;;;;;;4962199;28;20046;-84
2023/09/13 06:03:13;;;;;;;0.03;0.03;;;18.60;99.90;;;;;;4983484;28;20379;-81
2023/09/13 06:05:39;;;;;;;0.10;0.10;;;18.60;99.90;;;;;;4986146;28;20035;-81
2023/09/13 06:08:05;;;;;;;0.00;0.00;;;18.70;99.90;;;;;;4984810;28;20049;-75
2023/09/13 06:10:31;;;;;;;0.00;0.00;;;18.60;99.90;;;;;;4985594;28;20451;-75
2023/09/13 06:12:57;;;;;;;0.00;0.00;;;18.60;99.90;;;;;;4969522;28;20248;-75
2023/09/13 06:15:22;;;;;;;0.00;0.00;;;18.60;99.90;;;;;;4982273;28;20122;-76
2023/09/13 06:17:48;;;;;;;0.00;0.00;;;18.60;99.90;;;;;;4982948;28;20074;-76
2023/09/13 06:20:14;;;;;;;0.00;0.00;;;18.60;99.90;;;;;;4962909;28;20058;-74
2023/09/13 06:22:40;;;;;;;0.00;0.00;;;18.70;99.90;;;;;;4967314;28;20031;-75
2023/09/13 06:25:06;;;;;;;0.28;0.28;;;18.70;99.90;;;;;;4957943;28;20074;-75
2023/09/13 06:27:32;;;;;;;0.00;0.00;;;18.70;99.90;;;;;;4981523;28;20737;-74
2023/09/13 06:29:57;;;;;;;0.00;0.00;;;18.70;99.90;;;;;;4971452;28;20027;-75
2023/09/13 06:32:23;;;;;;;0.00;0.00;;;18.70;99.90;;;;;;4971025;28;20035;-76
2023/09/13 06:34:49;;;;;;;0.00;0.00;;;18.50;99.90;;;;;;4985649;28;20030;-75
2023/09/13 06:37:15;;;;;;;0.20;0.20;;;18.60;99.90;;;;;;4986859;28;20023;-75
2023/09/13 06:39:41;;;;;;;0.00;0.00;;;18.60;99.90;;;;;;4972638;28;20045;-75
2023/09/13 06:42:09;;;;;;;0.00;0.00;;;18.70;99.90;;;;;;4971021;28;20035;-75
2023/09/13 06:44:35;;;;;;;0.00;0.00;;;18.70;99.90;;;;;;4972612;28;20577;-75
2023/09/13 06:47:00;;;;;;;0.00;0.00;;;18.90;99.90;;;;;;4972333;28;20117;-75
2023/09/13 06:49:26;;;;;;;0.00;0.00;;;18.90;99.90;;;;;;4971855;28;20035;-76
2023/09/13 06:51:52;;;;;;;0.00;0.00;;;18.80;99.90;;;;;;4971763;28;20027;-75
2023/09/13 06:54:18;;;;;;;0.00;0.00;;;18.90;99.90;;;;;;4971569;28;20106;-75
2023/09/13 06:56:44;;;;;;;;;;;18.80;99.90;;;;;;4972363;28;20513;-76
2023/09/13 06:59:10;;;;;;;0.00;0.00;;;18.80;99.90;;;;;;4986290;28;19929;-74
2023/09/13 07:01:36;;;;;;;0.00;0.00;;;18.80;99.90;;;;;;4971411;28;20030;-75
2023/09/13 07:04:03;;;;;;;0.00;0.00;;;18.90;99.90;;;;;;4986087;28;20033;-75
2023/09/13 07:06:29;;;;;;;0.00;0.00;;;19.00;99.90;;;;;;4972525;28;20070;-75
2023/09/13 07:08:54;;;;;;;0.00;0.00;;;19.10;99.90;;;;;;4974295;28;20042;-76
2023/09/13 07:11:21;;;;;;;0.00;0.00;;;19.20;99.90;;;;;;4973586;28;20035;-75
2023/09/13 07:13:47;;;;;;;0.10;0.10;;;19.40;99.90;;;;;;4955661;28;20051;-75
2023/09/13 07:16:13;;;;;;;0.00;0.00;;;19.60;99.90;;;;;;4955132;28;20031;-75
2023/09/13 07:18:38;;;;;;;0.00;0.00;;;19.50;99.90;;;;;;4962555;28;20078;-75
2023/09/13 07:21:04;;;;;;;0.00;0.00;;;19.60;99.90;;;;;;4954248;28;20070;-75
2023/09/13 07:23:30;;;;;;;0.00;0.00;;;19.70;99.90;;;;;;4960246;28;20039;-75
2023/09/13 07:25:56;;;;;;;0.00;0.00;;;19.80;99.90;;;;;;4961771;28;20031;-76
2023/09/13 07:28:21;;;;;;;0.00;0.00;;;19.80;99.90;;;;;;4984705;28;20058;-74
2023/09/13 07:30:47;;;;;;;0.20;0.20;;;19.90;99.90;;;;;;4969704;28;20042;-75
2023/09/13 07:33:13;;;;;;;0.00;0.00;;;19.90;99.90;;;;;;4966091;28;20500;-75
2023/09/13 07:35:38;;;;;;;0.10;0.10;;;19.80;99.90;;;;;;4978591;28;20054;-76
2023/09/13 07:38:04;;;;;;;0.00;0.00;;;19.90;99.90;;;;;;4964349;28;20034;-76
2023/09/13 07:40:30;;;;;;;0.00;0.00;;;20.00;99.90;;;;;;4962962;28;20031;-75
2023/09/13 07:42:56;;;;;;;0.00;0.00;;;20.00;99.90;;;;;;4961030;28;20041;-76
2023/09/13 07:45:21;;;;;;;0.00;0.00;;;19.90;99.90;;;;;;4976894;28;20031;-74
2023/09/13 07:47:47;;;;;;;0.67;0.67;;;19.90;99.90;;;;;;4961057;28;20403;-76
2023/09/13 07:50:36;;;;;;;0.00;0.00;;;19.70;99.90;;;;;;4960624;28;20218;-76
2023/09/13 07:53:03;;;;;;;0.00;0.00;;;19.80;99.90;;;;;;4965593;28;20027;-75
2023/09/13 07:55:29;;;;;;;0.00;0.00;;;20.00;99.90;;;;;;4957301;28;20027;-75
2023/09/13 07:57:55;;;;;;;0.10;0.10;;;20.00;99.90;;;;;;4960423;28;20031;-75
2023/09/13 08:00:21;;;;;;;0.00;0.00;;;20.10;99.90;;;;;;4955941;28;20031;-75
2023/09/13 08:02:48;;;;;;;0.00;0.00;;;20.10;99.90;;;;;;4959646;28;20038;-76
2023/09/13 08:05:14;;;;;;;0.00;0.00;;;19.90;99.90;;;;;;4954659;28;20101;-76
2023/09/13 08:07:40;;;;;;;0.00;0.00;;;19.90;99.90;;;;;;4968968;28;20026;-75
2023/09/13 08:10:06;;;;;;;0.00;0.00;;;20.00;99.90;;;;;;4969915;28;20133;-76
2023/09/13 08:12:32;;;;;;;0.10;0.10;;;20.40;99.90;;;;;;4968136;28;20109;-76
2023/09/13 08:14:58;;;;;;;0.00;0.00;;;20.40;99.90;;;;;;4967562;28;20166;-76
2023/09/13 08:17:23;;;;;;;0.00;0.00;;;20.30;99.90;;;;;;4967157;28;20034;-75
2023/09/13 08:19:49;;;;;;;0.07;0.07;;;20.30;99.90;;;;;;4964783;28;20038;-76
2023/09/13 08:22:15;;;;;;;0.00;0.00;;;20.50;99.90;;;;;;4967526;28;20018;-76
2023/09/13 08:24:41;;;;;;;0.00;0.00;;;20.80;99.90;;;;;;4971968;28;20121;-76
2023/09/13 08:27:07;;;;;;;0.00;0.00;;;20.90;99.90;;;;;;4963361;28;20122;-76
2023/09/13 08:29:34;;;;;;;0.00;0.00;;;21.00;99.90;;;;;;4958807;28;20062;-75
2023/09/13 08:32:00;;;;;;;0.00;0.00;;;21.40;99.90;;;;;;4962823;28;20023;-76
2023/09/13 08:34:26;;;;;;;0.00;0.00;;;21.60;99.90;;;;;;4972761;28;20027;-76
2023/09/13 08:36:56;;;;;;;0.00;0.00;;;21.60;99.90;;;;;;4959411;28;20323;-76
2023/09/13 08:39:22;;;;;;;0.05;0.05;;;21.60;99.90;;;;;;4959652;28;20027;-76
2023/09/13 08:41:53;;;;;;;0.00;0.00;;;21.30;99.90;;;;;;4963480;28;20022;-76
2023/09/13 08:44:20;;;;;;;0.00;0.00;;;20.90;99.90;;;;;;4954513;28;20042;-75
2023/09/13 08:46:56;;;;;;;0.00;0.00;;;20.70;99.90;;;;;;4959710;28;20037;-76
2023/09/13 08:49:23;;;;;;;0.00;0.00;;;20.30;99.90;;;;;;4957092;28;20023;-76
2023/09/13 08:51:50;;;;;;;1.25;0.35;;;20.20;99.90;;;;;;4955613;28;20730;-76
2023/09/13 08:54:16;;;;;;;0.10;0.10;;;20.10;99.90;;;;;;4956703;28;20023;-76
2023/09/13 08:56:42;;;;;;;0.55;0.40;;;19.90;99.90;;;;;;4973075;28;20449;-76
2023/09/13 08:59:09;;;;;;;0.00;0.00;;;20.00;99.90;;;;;;4951534;28;20035;-76
2023/09/13 09:01:36;;;;;;;0.00;0.00;;;20.00;99.90;;;;;;4957790;28;20030;-76
2023/09/13 09:04:03;;;;;;;0.10;0.10;;;19.90;99.90;;;;;;4954734;28;20053;-76
2023/09/13 09:06:31;;;;;;;0.00;0.00;;;19.80;99.90;;;;;;4979648;28;20123;-77
2023/09/13 09:08:57;;;;;;;0.30;0.30;;;19.80;99.90;;;;;;4975758;28;20052;-76
2023/09/13 09:11:26;;;;;;;0.00;0.00;;;19.80;99.90;;;;;;4951821;28;20062;-77
2023/09/13 09:13:57;;;;;;;0.00;0.00;;;19.70;99.90;;;;;;4960269;28;20028;-76
2023/09/13 09:16:24;;;;;;;0.00;0.00;;;19.90;99.90;;;;;;4949541;28;20023;-76
2023/09/13 09:18:52;;;;;;;0.00;0.00;;;19.80;99.90;;;;;;4957614;28;20026;-75
2023/09/13 09:21:19;;;;;;;0.00;0.00;;;20.00;99.90;;;;;;4964764;28;20613;-76
2023/09/13 09:23:44;;;;;;;0.00;0.00;;;20.50;99.90;;;;;;4966529;28;20027;-76
2023/09/13 09:26:11;;;;;;;0.00;0.00;;;20.90;99.90;;;;;;4962116;28;20106;-76
2023/09/13 09:28:36;;;;;;;0.38;0.20;;;21.20;99.90;;;;;;4981849;28;20054;-76
2023/09/13 09:31:03;;;;;;;0.00;0.00;;;21.20;99.90;;;;;;4963788;28;20077;-75
2023/09/13 09:33:29;;;;;;;;;;;21.10;99.90;;;;;;4965193;28;20027;-76
2023/09/13 09:36:00;;;;;;;0.00;0.00;;;21.10;99.90;;;;;;4960162;28;19918;-76
2023/09/13 09:38:28;;;;;;;0.00;0.00;;;20.90;99.90;;;;;;4981945;28;20041;-76
2023/09/13 09:41:12;;;;;;;0.00;0.00;;;20.80;99.90;;;;;;4964093;28;20027;-76
2023/09/13 09:43:37;;;;;;;0.00;0.00;;;20.90;99.90;;;;;;4965001;28;20123;-76
2023/09/13 09:46:03;;;;;;;0.00;0.00;;;21.10;99.90;;;;;;4964216;28;20039;-76
2023/09/13 09:48:29;;;;;;;0.20;0.20;;;21.50;99.90;;;;;;4963922;28;20027;-76
2023/09/13 09:50:55;;;;;;;0.23;0.23;;;21.50;99.90;;;;;;4960972;28;20031;-76
2023/09/13 09:53:25;;;;;;;0.00;0.00;;;21.60;99.90;;;;;;4967211;28;20105;-76
2023/09/13 09:55:52;;;;;;;0.10;0.10;;;22.10;99.90;;;;;;4982680;28;20553;-76
2023/09/13 09:58:18;;;;;;;0.10;0.10;;;22.90;99.90;;;;;;4972268;28;20031;-75
2023/09/13 10:00:48;;;;;;;0.00;0.00;;;22.20;99.90;;;;;;4971756;28;20598;-76
2023/09/13 10:03:18;;;;;;;0.00;0.00;;;22.50;99.90;;;;;;4971895;28;20038;-77
2023/09/13 10:06:10;;;;;;;0.00;0.00;;;23.00;99.90;;;;;;4969215;28;20031;-77
2023/09/13 10:08:39;;;;;;;0.00;0.00;;;23.50;99.90;;;;;;4967902;28;20031;-77
2023/09/13 10:11:11;;;;;;;3.83;1.98;;;23.00;99.90;;;;;;4965497;28;20396;-76
2023/09/13 10:13:38;;;;;;;0.00;0.00;;;23.10;99.90;;;;;;4966105;28;20106;-76
2023/09/13 10:16:13;;;;;;;0.00;0.00;;;23.30;99.90;;;;;;4966383;28;20671;-77
2023/09/13 10:18:49;;;;;;;0.00;0.00;;;23.90;99.90;;;;;;4971886;28;20037;-76
2023/09/13 10:21:25;;;;;;;0.00;0.00;;;24.30;99.90;;;;;;4969045;28;20305;-76
2023/09/13 10:24:02;;;;;;;0.00;0.00;;;25.00;99.90;;;;;;4953560;28;20080;-76
2023/09/13 10:26:31;;;;;;;0.00;0.00;;;25.40;99.90;;;;;;4971259;28;20337;-76
2023/09/13 10:29:05;;;;;;;0.65;0.65;;;25.20;99.90;;;;;;4956927;28;20042;-77
2023/09/13 10:31:34;;;;;;;0.00;0.00;;;25.40;99.90;;;;;;4958972;28;20446;-76
2023/09/13 10:34:04;;;;;;;0.00;0.00;;;25.50;99.90;;;;;;4967565;28;20030;-77
2023/09/13 10:36:36;;;;;;;2.40;0.65;;;26.20;99.90;;;;;;4965851;28;20104;-77
2023/09/13 10:39:13;;;;;;;0.00;0.00;;;26.20;99.90;;;;;;4960905;28;20031;-77
2023/09/13 10:42:03;;;;;;;0.00;0.00;;;27.40;99.90;;;;;;4957345;28;20034;-76
2023/09/13 10:44:30;;;;;;;0.00;0.00;;;27.10;99.90;;;;;;4975121;28;20061;-77
2023/09/13 10:46:56;;;;;;;0.00;0.00;;;26.60;99.90;;;;;;4964472;28;20035;-77
2023/09/13 10:49:23;;;;;;;0.00;0.00;;;25.60;99.90;;;;;;4975372;28;20034;-77
2023/09/13 10:51:50;;;;;;;0.00;0.00;;;24.60;99.90;;;;;;4961827;28;20097;-76
2023/09/13 10:54:19;;;;;;;1.17;1.17;;;24.50;99.90;;;;;;4968151;28;20166;-77
2023/09/13 10:56:46;;;;;;;0.00;0.00;;;24.60;99.90;;;;;;4966335;28;20115;-76
2023/09/13 10:59:17;;;;;;;0.00;0.00;;;24.30;99.90;;;;;;4963243;28;20053;-76
2023/09/13 11:01:46;;;;;;;0.00;0.00;;;24.50;99.90;;;;;;4968107;28;20615;-77
2023/09/13 11:04:13;;;;;;;0.00;0.00;;;24.60;99.90;;;;;;4963068;28;20403;-77
2023/09/13 11:06:41;;;;;;;0.00;0.00;;;25.50;99.90;;;;;;4967823;28;20030;-77
2023/09/13 11:09:31;;;;;;;0.00;0.00;;;25.50;99.90;;;;;;4963055;28;20046;-77
2023/09/13 11:11:58;;;;;;;0.00;0.00;;;25.80;99.40;;;;;;4954271;28;20035;-77
2023/09/13 11:14:28;;;;;;;0.00;0.00;;;26.00;99.50;;;;;;4965748;28;20062;-77
2023/09/13 11:16:57;;;;;;;0.10;0.10;;;25.90;99.60;;;;;;4971775;28;20031;-78
2023/09/13 11:19:27;;;;;;;0.00;0.00;;;25.60;99.90;;;;;;4968907;28;20023;-78
2023/09/13 11:22:02;;;;;;;0.00;0.00;;;26.00;99.60;;;;;;4974931;28;20070;-78
2023/09/13 11:24:48;;;;;;;0.00;0.00;;;26.00;99.90;;;;;;4970783;28;20887;-77
2023/09/13 11:27:18;;;;;;;0.30;0.30;;;26.00;99.90;;;;;;4970697;28;20042;-77
2023/09/13 11:29:46;;;;;;;0.00;0.00;;;24.90;99.90;;;;;;4959247;28;20117;-78
2023/09/13 11:32:17;;;;;;;0.00;0.00;;;24.30;99.90;;;;;;4969797;28;20031;-78
2023/09/13 11:34:44;;;;;;;0.00;0.00;;;24.10;99.90;;;;;;4969598;28;20451;-77
2023/09/13 11:37:11;;;;;;;0.00;0.00;;;24.10;99.90;;;;;;4970606;28;20037;-78
2023/09/13 11:39:38;;;;;;;0.00;0.00;;;23.90;99.90;;;;;;4968426;28;20094;-78
2023/09/13 11:42:08;;;;;;;0.00;0.00;;;24.00;99.90;;;;;;4968748;28;20042;-78
2023/09/13 11:44:35;;;;;;;0.00;0.00;;;23.70;99.90;;;;;;4969986;28;20105;-77
2023/09/13 11:47:02;;;;;;;0.00;0.00;;;23.80;99.90;;;;;;4968627;28;20039;-77
2023/09/13 11:49:28;;;;;;;0.00;0.00;;;24.00;99.90;;;;;;4969329;28;20030;-77
2023/09/13 11:51:59;;;;;;;0.00;0.00;;;23.90;99.90;;;;;;4970266;28;20184;-78
2023/09/13 11:54:26;;;;;;;0.15;0.15;;;24.10;99.90;;;;;;4984704;28;20065;-77
2023/09/13 11:56:56;;;;;;;0.00;0.00;;;24.10;99.90;;;;;;4985362;28;20038;-77
2023/09/13 11:59:24;;;;;;;0.00;0.00;;;24.20;99.90;;;;;;4984680;28;20756;-78
2023/09/13 12:01:51;;;;;;;0.00;0.00;;;24.40;99.90;;;;;;4984383;28;20073;-78
2023/09/13 12:04:16;;;;;;;0.20;0.20;;;24.50;99.90;;;;;;4969145;28;20082;-77
2023/09/13 12:06:43;;;;;;;0.00;0.00;;;24.70;99.90;;;;;;4986321;28;20057;-78
2023/09/13 12:09:12;;;;;;;;;;;25.00;99.90;;;;;;4984946;28;20066;-77
2023/09/13 12:11:41;;;;;;;0.00;0.00;;;24.60;99.90;;;;;;4954634;28;20306;-77
2023/09/13 12:14:10;;;;;;;0.00;0.00;;;24.70;99.90;;;;;;4952278;28;20023;-78
2023/09/13 12:16:37;;;;;;;0.00;0.00;;;24.80;99.90;;;;;;4954027;28;20540;-78
2023/09/13 12:19:03;;;;;;;0.20;0.20;;;24.90;99.90;;;;;;4951964;28;20023;-78
2023/09/13 12:21:29;;;;;;;0.00;0.00;;;24.70;99.90;;;;;;4953953;28;20070;-78
2023/09/13 12:23:55;;;;;;;0.00;0.00;;;24.50;99.40;;;;;;4953451;28;20651;-78
2023/09/13 12:26:21;;;;;;;0.00;0.00;;;23.90;99.90;;;;;;4959335;28;20038;-78
2023/09/13 12:28:48;;;;;;;0.00;0.00;;;23.40;99.90;;;;;;4983263;28;20066;-77
2023/09/13 12:31:14;;;;;;;;;;;23.50;99.90;;;;;;4965477;28;20039;-78
2023/09/13 12:33:42;;;;;;;0.00;0.00;;;22.70;99.90;;;;;;4968548;28;19910;-77
2023/09/13 12:36:08;;;;;;;0.00;0.00;;;22.60;99.90;;;;;;4968876;28;20026;-77
2023/09/13 12:38:42;;;;;;;0.45;0.45;;;21.90;99.90;;;;;;4969375;28;20023;-78
2023/09/13 12:41:12;;;;;;;0.00;0.00;;;22.30;99.90;;;;;;4968755;28;20038;-77
2023/09/13 12:43:40;;;;;;;0.00;0.00;;;22.30;99.90;;;;;;4970037;28;20059;-78
2023/09/13 12:46:07;;;;;;;0.00;0.00;;;22.40;99.90;;;;;;4968556;28;20034;-78
2023/09/13 12:48:33;;;;;;;0.00;0.00;;;22.20;99.90;;;;;;4969297;28;20038;-78